Time;durP1;ratioP1;P1;durP2;ratioP2;P2;SDS_P1;SDS_P2;PMS_P1;PMS_P2;Temp;Humidity;BMP_temperature;BMP_pressure;BME280_temperature;BME280_humidity;BME280_pressure;Samples;Min_cycle;Max_cycle;Signal;HPM_P1;HPM_P2
2021/01/08 00:02:00;;;;;;;104.80;98.40;;;2.40;99.90;;;;;;5051482;28;20471;-82
2021/01/08 00:04:26;;;;;;;97.93;91.87;;;2.50;99.90;;;;;;5052985;28;20458;-81
2021/01/08 00:06:55;;;;;;;97.97;92.43;;;2.40;99.90;;;;;;5052948;28;20456;-81
2021/01/08 00:09:22;;;;;;;99.03;93.13;;;2.40;99.90;;;;;;5052777;28;20448;-82
2021/01/08 00:11:54;;;;;;;96.67;90.60;;;2.20;99.90;;;;;;5052695;28;20572;-82
2021/01/08 00:14:22;;;;;;;102.53;95.80;;;2.20;99.90;;;;;;5052787;28;20478;-80
2021/01/08 00:16:48;;;;;;;109.90;102.67;;;2.20;99.90;;;;;;5051585;28;20451;-81
2021/01/08 00:19:14;;;;;;;107.53;100.63;;;2.20;99.90;;;;;;5052806;28;20482;-81
2021/01/08 00:21:44;;;;;;;119.07;112.27;;;2.00;99.90;;;;;;5052514;28;20970;-81
2021/01/08 00:24:11;;;;;;;117.93;110.43;;;2.10;99.90;;;;;;5052480;28;20475;-82
2021/01/08 00:26:39;;;;;;;124.73;116.73;;;2.00;99.90;;;;;;5052597;28;20455;-82
2021/01/08 00:29:05;;;;;;;119.17;111.27;;;2.00;99.90;;;;;;5052627;28;20593;-80
2021/01/08 00:31:40;;;;;;;125.53;117.37;;;2.00;99.90;;;;;;5051348;28;20546;-81
2021/01/08 00:34:08;;;;;;;129.00;120.90;;;2.00;99.90;;;;;;5052520;28;21001;-82
2021/01/08 00:36:36;;;;;;;130.33;122.30;;;2.00;99.90;;;;;;5052705;28;20455;-82
2021/01/08 00:39:04;;;;;;;132.67;124.67;;;2.00;99.90;;;;;;5052402;28;20455;-81
2021/01/08 00:41:33;;;;;;;135.77;127.77;;;2.00;99.90;;;;;;5052360;28;20570;-82
2021/01/08 00:44:00;;;;;;;140.23;131.13;;;2.10;99.90;;;;;;5052377;28;20922;-83
2021/01/08 00:46:35;;;;;;;137.77;128.83;;;2.10;99.90;;;;;;5051424;28;20486;-82
2021/01/08 00:49:03;;;;;;;130.13;123.00;;;2.10;99.90;;;;;;5052397;28;20455;-81
2021/01/08 00:51:30;;;;;;;136.13;128.10;;;2.00;99.90;;;;;;5052760;28;20989;-82
2021/01/08 00:53:56;;;;;;;130.27;122.53;;;2.00;99.90;;;;;;5709581;22;20563;-82
2021/01/08 00:56:23;;;;;;;127.00;119.07;;;2.10;99.90;;;;;;5036229;28;20944;-82
2021/01/08 00:58:49;;;;;;;126.17;118.60;;;2.00;99.90;;;;;;5036291;28;20711;-82
2021/01/08 01:01:18;;;;;;;133.00;125.40;;;2.10;99.90;;;;;;5035062;28;20542;-82
2021/01/08 01:03:44;;;;;;;123.17;115.47;;;2.00;99.90;;;;;;5036084;28;20527;-82
2021/01/08 01:06:12;;;;;;;123.33;115.63;;;2.00;99.90;;;;;;5036099;28;20943;-82
2021/01/08 01:08:38;;;;;;;127.63;119.47;;;2.10;99.90;;;;;;5036141;28;21027;-82
2021/01/08 01:11:05;;;;;;;125.70;118.20;;;2.00;99.90;;;;;;5036175;28;20535;-83
2021/01/08 01:13:32;;;;;;;132.30;123.87;;;2.00;99.90;;;;;;5036037;28;20448;-82
2021/01/08 01:15:59;;;;;;;134.70;127.20;;;2.00;99.90;;;;;;5034814;28;20495;-84
2021/01/08 01:18:25;;;;;;;129.77;122.53;;;1.90;99.90;;;;;;5035811;28;20495;-83
2021/01/08 01:20:52;;;;;;;146.77;138.07;;;1.90;99.90;;;;;;5035793;28;20448;-83
2021/01/08 01:23:19;;;;;;;139.43;131.20;;;1.90;99.90;;;;;;5035735;28;20583;-82
2021/01/08 01:25:46;;;;;;;137.07;128.87;;;2.00;99.90;;;;;;5037980;28;20459;-83
2021/01/08 01:28:15;;;;;;;137.50;128.93;;;1.90;99.90;;;;;;5035764;28;20831;-83
2021/01/08 01:30:41;;;;;;;146.50;137.90;;;2.00;99.90;;;;;;5034455;28;20456;-83
2021/01/08 01:33:08;;;;;;;148.30;139.73;;;1.90;99.90;;;;;;5035755;28;21022;-82
2021/01/08 01:35:36;;;;;;;148.43;138.90;;;2.00;99.90;;;;;;5035668;28;20459;-83
2021/01/08 01:38:03;;;;;;;139.60;131.20;;;1.90;99.90;;;;;;5035716;28;20475;-83
2021/01/08 01:40:30;;;;;;;143.10;134.80;;;1.90;99.90;;;;;;5035511;28;20453;-82
2021/01/08 01:42:56;;;;;;;141.43;132.97;;;1.90;99.90;;;;;;5035382;28;20526;-82
2021/01/08 01:45:26;;;;;;;150.33;139.97;;;1.90;99.90;;;;;;5034401;28;20452;-83
2021/01/08 01:47:54;;;;;;;144.33;136.13;;;1.90;99.90;;;;;;5035239;28;20488;-83
2021/01/08 01:50:21;;;;;;;142.37;133.77;;;1.90;99.90;;;;;;5035341;28;20448;-83
2021/01/08 01:52:48;;;;;;;131.13;123.83;;;1.80;99.90;;;;;;5035287;28;20514;-83
2021/01/08 01:55:22;;;;;;;142.13;133.13;;;1.90;99.90;;;;;;5035148;28;20484;-82
2021/01/08 01:57:51;;;;;;;138.40;130.47;;;1.90;99.90;;;;;;5035382;28;20443;-83
2021/01/08 02:00:18;;;;;;;137.60;128.90;;;1.90;99.90;;;;;;5033784;28;20445;-83
2021/01/08 02:02:52;;;;;;;137.37;129.00;;;1.90;99.90;;;;;;5034838;28;20476;-82
2021/01/08 02:05:23;;;;;;;134.23;126.30;;;1.90;99.90;;;;;;5034738;28;20578;-83
2021/01/08 02:07:54;;;;;;;136.23;127.50;;;1.90;99.90;;;;;;5035012;28;20582;-83
2021/01/08 02:10:27;;;;;;;142.17;134.73;;;1.90;99.90;;;;;;5035017;28;20456;-83
2021/01/08 02:12:58;;;;;;;145.67;135.57;;;1.90;99.90;;;;;;5034714;28;20456;-83
2021/01/08 02:15:28;;;;;;;142.97;134.20;;;2.00;99.90;;;;;;5034052;28;20550;-83
2021/01/08 02:17:54;;;;;;;142.73;134.23;;;1.90;99.90;;;;;;5034754;28;20460;-83
2021/01/08 02:20:22;;;;;;;146.13;136.93;;;2.00;99.90;;;;;;5035678;28;20522;-83
2021/01/08 02:22:52;;;;;;;143.50;134.90;;;1.90;99.90;;;;;;5034623;28;20487;-83
2021/01/08 02:25:26;;;;;;;139.23;131.13;;;1.90;99.90;;;;;;5037657;28;20547;-84
2021/01/08 02:28:17;;;;;;;142.23;134.07;;;1.90;99.90;;;;;;5034552;28;21000;-83
2021/01/08 02:30:44;;;;;;;146.63;138.03;;;2.00;99.90;;;;;;5034239;28;20891;-83
2021/01/08 02:33:13;;;;;;;150.50;141.50;;;2.00;99.90;;;;;;5034559;28;20460;-83
2021/01/08 02:35:40;;;;;;;145.10;136.03;;;1.90;99.90;;;;;;5034442;28;20519;-82
2021/01/08 02:38:08;;;;;;;145.87;136.83;;;1.90;99.90;;;;;;5394640;22;20495;-80
2021/01/08 02:40:36;;;;;;;151.77;142.00;;;1.90;99.90;;;;;;5034386;28;20514;-80
2021/01/08 02:43:04;;;;;;;148.83;139.80;;;1.90;99.90;;;;;;5034405;28;20957;-80
2021/01/08 02:45:31;;;;;;;146.53;137.10;;;1.90;99.90;;;;;;5033316;28;20464;-81
2021/01/08 02:47:59;;;;;;;152.60;143.40;;;2.00;99.90;;;;;;5034407;28;20547;-80
2021/01/08 02:50:26;;;;;;;154.33;144.67;;;1.90;99.90;;;;;;5034273;28;20463;-81
2021/01/08 02:52:59;;;;;;;154.00;144.17;;;2.00;99.90;;;;;;5033993;28;20496;-81
2021/01/08 02:55:32;;;;;;;147.70;138.67;;;1.90;99.90;;;;;;5034268;28;20535;-81
2021/01/08 02:58:02;;;;;;;150.80;141.97;;;2.00;99.90;;;;;;5034065;28;20456;-80
2021/01/08 03:00:29;;;;;;;138.37;130.43;;;2.00;99.90;;;;;;5032829;28;20492;-81
2021/01/08 03:02:58;;;;;;;143.57;134.67;;;2.00;99.90;;;;;;5033671;28;20570;-80
2021/01/08 03:05:27;;;;;;;144.00;135.27;;;2.00;99.90;;;;;;5033960;28;20982;-80
2021/01/08 03:07:54;;;;;;;143.10;134.50;;;2.00;99.90;;;;;;5034031;28;20523;-81
2021/01/08 03:10:21;;;;;;;153.17;142.47;;;1.90;99.90;;;;;;5033827;28;20456;-80
2021/01/08 03:12:54;;;;;;;148.57;138.60;;;1.80;99.90;;;;;;5033814;28;20457;-80
2021/01/08 03:15:21;;;;;;;145.27;136.43;;;1.90;99.90;;;;;;5031660;28;20510;-80
2021/01/08 03:17:48;;;;;;;152.17;141.90;;;1.90;99.90;;;;;;5033640;28;20500;-80
2021/01/08 03:20:15;;;;;;;157.17;145.63;;;1.80;99.90;;;;;;5033652;28;20454;-80
2021/01/08 03:22:41;;;;;;;152.17;141.77;;;1.90;99.90;;;;;;5033381;28;20575;-80
2021/01/08 03:25:09;;;;;;;154.93;144.47;;;1.80;99.90;;;;;;5033552;28;20551;-81
2021/01/08 03:27:35;;;;;;;158.23;146.70;;;1.80;99.90;;;;;;5033750;28;20547;-80
2021/01/08 03:32:38;;;;;;;147.33;137.37;;;1.80;99.90;;;;;;5674456;22;20504;-81
2021/01/08 03:35:06;;;;;;;142.87;133.40;;;1.80;99.90;;;;;;5034363;28;20532;-81
2021/01/08 03:37:32;;;;;;;153.37;143.03;;;1.70;99.90;;;;;;5033367;28;20491;-82
2021/01/08 03:39:59;;;;;;;149.53;140.30;;;1.60;99.90;;;;;;5033340;28;20535;-81
2021/01/08 03:42:27;;;;;;;147.10;138.20;;;1.70;99.90;;;;;;5033012;28;21003;-81
2021/01/08 03:44:54;;;;;;;150.47;140.90;;;1.50;99.90;;;;;;5033107;28;20497;-81
2021/01/08 03:47:20;;;;;;;147.83;138.83;;;1.60;99.90;;;;;;5032026;28;20539;-81
2021/01/08 03:49:47;;;;;;;151.90;142.97;;;1.60;99.90;;;;;;5033210;28;20514;-81
2021/01/08 03:52:14;;;;;;;153.53;143.67;;;1.50;99.90;;;;;;5033075;28;20455;-81
2021/01/08 03:54:40;;;;;;;159.90;149.50;;;1.50;99.90;;;;;;5033175;28;20861;-81
2021/01/08 03:57:06;;;;;;;158.10;148.90;;;1.70;99.90;;;;;;5032899;28;20460;-82
2021/01/08 03:59:33;;;;;;;157.10;147.23;;;1.60;99.90;;;;;;5033039;28;21036;-82
2021/01/08 04:01:59;;;;;;;151.20;142.67;;;1.60;99.90;;;;;;5031691;28;20460;-81
2021/01/08 04:04:27;;;;;;;152.80;143.87;;;1.60;99.90;;;;;;5033046;28;20463;-82
2021/01/08 04:06:55;;;;;;;157.17;147.00;;;1.50;99.90;;;;;;5032973;28;20518;-82
2021/01/08 04:09:21;;;;;;;155.37;146.47;;;1.60;99.90;;;;;;5032816;28;20547;-82
2021/01/08 04:11:48;;;;;;;150.10;140.60;;;1.50;99.90;;;;;;5032728;28;20628;-82
2021/01/08 04:14:16;;;;;;;153.57;144.20;;;1.50;99.90;;;;;;5032924;28;20551;-81
2021/01/08 04:16:42;;;;;;;153.07;144.47;;;1.50;99.90;;;;;;5031831;28;20457;-81
2021/01/08 04:19:09;;;;;;;156.60;146.90;;;1.50;99.90;;;;;;5032613;28;20456;-81
2021/01/08 04:21:36;;;;;;;157.13;148.03;;;1.40;99.90;;;;;;5032669;28;20558;-81
2021/01/08 04:24:05;;;;;;;155.83;145.77;;;1.50;99.90;;;;;;5032737;28;20870;-81
2021/01/08 04:26:31;;;;;;;157.80;148.60;;;1.40;99.90;;;;;;5033227;28;20502;-81
2021/01/08 04:31:33;;;;;;;164.57;154.70;;;1.40;99.90;;;;;;5297538;22;20519;-82
2021/01/08 04:34:03;;;;;;;160.70;149.93;;;1.30;99.90;;;;;;5036766;28;20472;-81
2021/01/08 04:36:30;;;;;;;164.13;154.33;;;1.40;99.90;;;;;;5036896;28;20460;-81
2021/01/08 04:38:56;;;;;;;161.37;151.70;;;1.30;99.90;;;;;;5036604;28;20539;-82
2021/01/08 04:41:24;;;;;;;164.60;154.67;;;1.40;99.90;;;;;;5036591;28;20864;-83
2021/01/08 04:43:50;;;;;;;164.53;154.37;;;1.40;99.90;;;;;;5037021;28;20491;-83
2021/01/08 04:46:21;;;;;;;167.07;155.97;;;1.50;99.90;;;;;;5035321;28;20451;-81
2021/01/08 04:48:51;;;;;;;160.00;150.67;;;1.50;99.90;;;;;;5036505;28;20949;-83
2021/01/08 04:51:19;;;;;;;169.03;159.03;;;1.50;99.90;;;;;;5036363;28;20464;-82
2021/01/08 04:53:46;;;;;;;165.60;156.37;;;1.50;99.90;;;;;;5036378;28;20881;-82
2021/01/08 04:56:17;;;;;;;169.93;159.83;;;1.50;99.90;;;;;;5036442;28;20460;-83
2021/01/08 04:59:01;;;;;;;164.80;155.30;;;1.50;99.90;;;;;;5036483;28;20452;-83
2021/01/08 05:01:34;;;;;;;165.30;155.10;;;1.50;99.90;;;;;;5034837;28;20939;-83
2021/01/08 05:06:52;;;;;;;160.20;150.50;;;1.60;99.90;;;;;;5034873;28;20964;-81
2021/01/08 05:09:19;;;;;;;161.50;152.60;;;1.50;99.90;;;;;;5036144;28;20845;-83
2021/01/08 05:11:46;;;;;;;162.87;153.40;;;1.50;99.90;;;;;;5036019;28;20950;-82
2021/01/08 05:14:17;;;;;;;164.97;155.63;;;1.50;99.90;;;;;;5035945;28;20456;-82
2021/01/08 05:16:44;;;;;;;161.80;152.80;;;1.50;99.90;;;;;;5035017;28;20456;-82
2021/01/08 05:19:10;;;;;;;163.30;153.80;;;1.50;99.90;;;;;;5036047;28;20444;-82
2021/01/08 05:21:45;;;;;;;161.40;152.60;;;1.50;99.90;;;;;;5035846;28;20508;-83
2021/01/08 05:24:12;;;;;;;162.23;153.43;;;1.50;99.90;;;;;;5035743;28;20587;-82
2021/01/08 05:26:42;;;;;;;162.47;153.23;;;1.50;99.90;;;;;;5035771;28;20535;-84
2021/01/08 05:29:14;;;;;;;158.77;149.50;;;1.50;99.90;;;;;;5035653;28;20456;-82
2021/01/08 05:31:42;;;;;;;154.97;146.27;;;1.50;99.90;;;;;;5034242;28;20484;-83
2021/01/08 05:34:11;;;;;;;159.03;149.27;;;1.50;99.90;;;;;;5035581;28;20456;-82
2021/01/08 05:36:37;;;;;;;161.93;152.00;;;1.50;99.90;;;;;;5035777;28;20460;-82
2021/01/08 05:39:05;;;;;;;157.30;148.70;;;1.40;99.90;;;;;;5034362;28;20491;-82
2021/01/08 05:41:32;;;;;;;158.27;144.83;;;1.50;99.90;;;;;;5035512;28;20462;-81
2021/01/08 05:44:00;;;;;;;152.17;143.77;;;1.40;99.90;;;;;;5035254;28;20487;-81
2021/01/08 05:46:29;;;;;;;152.70;144.17;;;1.30;99.90;;;;;;5034247;28;20448;-81
2021/01/08 05:48:59;;;;;;;156.40;146.70;;;1.20;99.90;;;;;;5035414;28;20452;-82
2021/01/08 05:51:29;;;;;;;154.23;144.80;;;1.30;99.90;;;;;;5035571;28;20460;-81
2021/01/08 05:53:59;;;;;;;152.70;143.77;;;1.20;99.90;;;;;;5035143;28;20456;-81
2021/01/08 05:56:26;;;;;;;164.77;154.67;;;1.20;99.90;;;;;;5036128;28;20543;-81
2021/01/08 05:58:54;;;;;;;160.87;151.27;;;1.10;99.90;;;;;;5035314;28;20491;-81
2021/01/08 06:01:20;;;;;;;162.87;153.67;;;1.10;99.90;;;;;;5034043;28;20506;-81
2021/01/08 06:03:47;;;;;;;163.23;153.57;;;1.10;99.90;;;;;;5035047;28;21062;-82
2021/01/08 06:06:14;;;;;;;168.80;157.40;;;1.20;99.90;;;;;;5035009;28;20963;-82
2021/01/08 06:08:51;;;;;;;168.00;155.80;;;1.20;99.90;;;;;;5034898;28;20507;-82
2021/01/08 06:11:19;;;;;;;165.57;155.57;;;1.10;99.90;;;;;;5035122;28;20539;-82
2021/01/08 06:13:50;;;;;;;162.43;152.77;;;1.10;99.90;;;;;;5035094;28;20452;-82
2021/01/08 06:16:24;;;;;;;161.43;152.23;;;1.10;99.90;;;;;;5033850;28;20868;-83
2021/01/08 06:18:51;;;;;;;157.30;148.10;;;1.10;99.90;;;;;;5034846;28;20542;-82
2021/01/08 06:21:19;;;;;;;153.93;145.30;;;1.20;99.90;;;;;;5034658;28;20879;-82
2021/01/08 06:23:46;;;;;;;158.68;149.52;;;1.10;99.90;;;;;;5034554;28;20495;-82
2021/01/08 06:26:14;;;;;;;162.87;154.07;;;1.00;99.90;;;;;;5034997;28;20627;-82
2021/01/08 06:28:42;;;;;;;162.67;154.07;;;1.10;99.90;;;;;;5034881;28;20456;-83
2021/01/08 06:31:35;;;;;;;;;;;;;;;;;;;;;
2021/01/08 06:34:08;;;;;;;161.67;152.40;;;1.00;99.90;;;;;;5031544;28;20465;-82
2021/01/08 06:36:45;;;;;;;162.55;152.80;;;1.00;99.90;;;;;;5034667;28;20444;-83
2021/01/08 06:39:23;;;;;;;167.77;157.00;;;1.00;99.90;;;;;;5034439;28;20221;-83
2021/01/08 06:41:56;;;;;;;165.10;154.50;;;1.00;99.90;;;;;;5034470;28;20480;-84
2021/01/08 06:44:36;;;;;;;163.80;153.90;;;1.00;99.90;;;;;;5034226;28;20497;-82
2021/01/08 06:47:05;;;;;;;170.70;159.47;;;1.00;99.90;;;;;;5014651;28;20440;-82
2021/01/08 06:49:33;;;;;;;168.67;157.93;;;1.00;99.90;;;;;;5033881;28;20452;-82
2021/01/08 06:52:05;;;;;;;178.23;167.80;;;1.10;99.90;;;;;;5034104;28;20464;-84
2021/01/08 06:54:36;;;;;;;188.57;176.80;;;1.00;99.90;;;;;;5034645;28;20468;-82
2021/01/08 06:57:11;;;;;;;175.30;163.80;;;1.10;99.90;;;;;;5035421;28;20464;-82
2021/01/08 06:59:45;;;;;;;174.77;163.25;;;1.10;99.90;;;;;;5034014;28;20452;-82
2021/01/08 07:02:15;;;;;;;175.40;164.50;;;1.20;99.90;;;;;;5032724;28;20204;-81
2021/01/08 07:04:44;;;;;;;174.60;163.50;;;1.20;99.90;;;;;;5034085;28;20499;-82
2021/01/08 07:07:13;;;;;;;179.97;168.47;;;1.20;99.90;;;;;;5033917;28;20452;-82
2021/01/08 07:09:41;;;;;;;171.23;160.60;;;1.10;99.90;;;;;;5033956;28;20864;-81
2021/01/08 07:12:09;;;;;;;174.70;163.57;;;1.00;99.90;;;;;;5033685;28;20456;-81
2021/01/08 07:14:36;;;;;;;183.97;171.97;;;1.10;99.90;;;;;;5033858;28;20456;-81
2021/01/08 07:17:05;;;;;;;179.53;169.03;;;1.10;99.90;;;;;;5032710;28;20495;-83
2021/01/08 07:19:41;;;;;;;182.57;171.17;;;1.10;99.90;;;;;;5033536;28;20457;-83
2021/01/08 07:22:33;;;;;;;178.93;168.00;;;1.10;99.90;;;;;;5033458;28;20530;-83
2021/01/08 07:25:13;;;;;;;;;;;;;;;;;;;;;
2021/01/08 07:30:38;;;;;;;178.60;167.70;;;1.10;99.90;;;;;;5032067;28;21063;-81
2021/01/08 07:33:16;;;;;;;182.60;171.73;;;1.10;99.90;;;;;;5033417;28;20467;-81
2021/01/08 07:35:47;;;;;;;175.33;165.40;;;1.10;99.90;;;;;;5033414;28;20888;-81
2021/01/08 07:38:35;;;;;;;192.60;180.73;;;1.10;99.90;;;;;;5033340;28;20456;-81
2021/01/08 07:41:02;;;;;;;184.13;173.67;;;1.30;99.90;;;;;;5033326;28;20555;-81
2021/01/08 07:43:32;;;;;;;193.83;181.40;;;1.10;99.90;;;;;;5032898;28;20563;-82
2021/01/08 07:46:02;;;;;;;178.73;167.17;;;1.20;99.90;;;;;;5031441;28;20513;-81
2021/01/08 07:48:31;;;;;;;188.13;175.70;;;1.30;99.90;;;;;;5032887;28;20463;-82
2021/01/08 07:51:01;;;;;;;195.40;182.77;;;1.20;99.90;;;;;;5033075;28;20563;-82
2021/01/08 07:53:47;;;;;;;197.93;184.87;;;1.20;99.90;;;;;;5033208;28;20816;-82
2021/01/08 07:56:16;;;;;;;192.73;180.80;;;1.20;99.90;;;;;;5033184;28;20803;-82
2021/01/08 08:01:21;;;;;;;195.27;181.20;;;1.30;99.90;;;;;;5657039;22;20338;-80
2021/01/08 08:03:57;;;;;;;213.10;197.03;;;1.40;99.90;;;;;;5032931;28;20484;-81
2021/01/08 08:06:25;;;;;;;202.17;185.50;;;1.40;99.90;;;;;;5032996;28;20456;-81
2021/01/08 08:08:53;;;;;;;202.90;187.50;;;1.50;99.90;;;;;;5032805;28;20995;-81
2021/01/08 08:11:25;;;;;;;200.77;186.07;;;1.40;99.90;;;;;;5033169;28;20546;-80
2021/01/08 08:14:00;;;;;;;223.23;205.90;;;1.40;99.90;;;;;;5032806;28;20456;-81
2021/01/08 08:16:39;;;;;;;218.17;201.30;;;1.40;99.90;;;;;;5031682;28;20539;-81
2021/01/08 08:19:10;;;;;;;211.00;194.77;;;1.50;99.90;;;;;;5031271;28;20467;-81
2021/01/08 08:21:45;;;;;;;196.33;182.17;;;1.50;99.90;;;;;;5050882;28;20480;-80
2021/01/08 08:24:16;;;;;;;186.07;172.90;;;1.60;99.90;;;;;;5050857;28;20491;-80
2021/01/08 08:26:44;;;;;;;176.30;164.37;;;1.50;99.90;;;;;;5051597;28;20463;-82
2021/01/08 08:29:12;;;;;;;181.07;168.30;;;1.50;99.90;;;;;;5051140;28;20457;-80
2021/01/08 08:31:45;;;;;;;180.50;168.70;;;1.60;99.90;;;;;;5049822;28;20455;-81
2021/01/08 08:34:34;;;;;;;179.20;166.20;;;1.70;99.90;;;;;;5051424;28;20811;-82
2021/01/08 08:37:10;;;;;;;181.60;170.33;;;1.50;99.90;;;;;;5052732;28;20498;-81
2021/01/08 08:39:37;;;;;;;190.23;177.30;;;1.50;99.90;;;;;;5052599;28;20494;-80
2021/01/08 08:42:04;;;;;;;195.37;182.37;;;1.60;99.90;;;;;;5052441;28;20485;-80
2021/01/08 08:44:41;;;;;;;205.17;190.70;;;1.70;99.90;;;;;;5052537;28;20490;-81
2021/01/08 08:47:07;;;;;;;189.10;177.80;;;1.80;99.90;;;;;;5051307;28;20462;-81
2021/01/08 08:49:44;;;;;;;190.37;177.70;;;1.70;99.90;;;;;;5052282;28;20451;-85
2021/01/08 08:52:10;;;;;;;199.60;185.90;;;1.80;99.90;;;;;;5052383;28;20569;-82
2021/01/08 08:54:39;;;;;;;188.63;176.00;;;1.90;99.90;;;;;;5052429;28;20998;-81
2021/01/08 08:57:10;;;;;;;195.60;182.20;;;2.10;99.90;;;;;;5052462;28;20490;-81
2021/01/08 08:59:40;;;;;;;185.23;172.83;;;2.00;99.90;;;;;;5052152;28;20538;-82
2021/01/08 09:02:08;;;;;;;181.93;170.50;;;2.10;99.90;;;;;;5051029;28;20487;-80
2021/01/08 09:04:34;;;;;;;175.03;163.63;;;2.10;99.90;;;;;;5052286;28;20574;-80
2021/01/08 09:07:07;;;;;;;175.77;163.47;;;2.10;99.90;;;;;;5052275;28;20455;-81
2021/01/08 09:09:41;;;;;;;160.83;151.23;;;2.20;99.90;;;;;;5052234;28;20481;-81
2021/01/08 09:12:25;;;;;;;164.40;152.63;;;2.10;99.90;;;;;;5052134;28;20524;-80
2021/01/08 09:15:03;;;;;;;154.97;144.70;;;2.30;99.90;;;;;;5055885;28;20558;-80
2021/01/08 09:17:43;;;;;;;155.57;145.27;;;2.30;99.90;;;;;;5054612;28;20463;-81
2021/01/08 09:20:14;;;;;;;151.57;142.50;;;2.30;99.90;;;;;;5055771;28;20883;-81
2021/01/08 09:22:44;;;;;;;154.87;144.80;;;2.40;99.90;;;;;;5055690;28;20447;-81
2021/01/08 09:25:18;;;;;;;152.13;142.87;;;2.50;99.90;;;;;;5055816;28;20479;-82
2021/01/08 09:27:49;;;;;;;135.87;127.23;;;2.70;99.90;;;;;;5056042;28;20463;-81
2021/01/08 09:30:17;;;;;;;128.63;120.73;;;2.70;99.90;;;;;;5054385;28;20470;-80
2021/01/08 09:32:57;;;;;;;137.63;128.60;;;2.60;99.90;;;;;;5055682;28;20467;-80
2021/01/08 09:35:25;;;;;;;136.87;127.23;;;2.70;99.90;;;;;;5055534;28;20481;-80
2021/01/08 09:37:57;;;;;;;133.80;125.17;;;2.80;99.90;;;;;;5055573;28;20967;-80
2021/01/08 09:40:24;;;;;;;135.30;126.90;;;2.70;99.90;;;;;;5055422;28;20466;-80
2021/01/08 09:42:53;;;;;;;125.67;117.20;;;2.70;99.90;;;;;;5055268;28;20456;-81
2021/01/08 09:45:22;;;;;;;111.60;105.23;;;2.70;99.90;;;;;;5054143;28;20451;-81
2021/01/08 09:47:49;;;;;;;111.20;103.10;;;2.70;99.90;;;;;;5055367;28;20478;-81
2021/01/08 09:50:25;;;;;;;118.07;110.43;;;2.60;99.90;;;;;;5055491;28;20459;-80
2021/01/08 09:52:59;;;;;;;106.83;100.30;;;2.70;99.90;;;;;;5055337;28;20946;-81
2021/01/08 09:55:28;;;;;;;98.80;92.40;;;2.70;99.90;;;;;;5055425;28;20455;-81
2021/01/08 09:58:02;;;;;;;104.87;98.77;;;2.70;99.90;;;;;;5055035;28;20501;-81
2021/01/08 10:03:23;;;;;;;111.00;104.13;;;2.80;99.90;;;;;;4993850;28;20497;-82
2021/01/08 10:05:49;;;;;;;113.87;106.97;;;2.80;99.90;;;;;;4995873;28;20462;-82
2021/01/08 10:08:20;;;;;;;112.67;106.03;;;2.90;99.90;;;;;;4995736;28;20541;-82
2021/01/08 10:10:48;;;;;;;109.40;102.80;;;2.90;99.90;;;;;;4995593;28;20513;-82
2021/01/08 10:13:19;;;;;;;105.97;99.67;;;2.90;99.90;;;;;;4995627;28;20801;-83
2021/01/08 10:15:49;;;;;;;111.83;105.50;;;2.80;99.90;;;;;;4994538;28;20458;-83
2021/01/08 10:18:22;;;;;;;108.50;102.70;;;2.90;99.90;;;;;;4995531;28;20533;-83
2021/01/08 10:20:50;;;;;;;114.33;108.03;;;2.90;99.90;;;;;;4995436;28;20470;-83
2021/01/08 10:23:27;;;;;;;112.60;106.10;;;2.90;99.90;;;;;;4995348;28;20490;-81
2021/01/08 10:26:08;;;;;;;112.03;105.60;;;3.10;99.90;;;;;;4994984;28;20957;-82
2021/01/08 10:28:46;;;;;;;112.30;106.10;;;3.20;99.90;;;;;;4995459;28;20542;-81
2021/01/08 10:31:14;;;;;;;105.90;99.80;;;3.20;99.90;;;;;;4994150;28;20458;-82
2021/01/08 10:36:30;;;;;;;;;;;;;;;;;;;;;
2021/01/08 10:38:59;;;;;;;79.57;74.57;;;3.20;99.90;;;;;;5014717;28;20190;-81
2021/01/08 10:41:26;;;;;;;78.17;73.57;;;3.20;99.90;;;;;;5014630;28;20964;-80
2021/01/08 10:44:01;;;;;;;76.53;72.00;;;3.30;99.90;;;;;;5014471;28;20516;-80
2021/01/08 10:46:39;;;;;;;54.90;50.73;;;3.40;99.90;;;;;;5013362;28;20965;-80
2021/01/08 10:49:11;;;;;;;57.70;53.90;;;3.30;99.90;;;;;;5014966;28;20464;-83
2021/01/08 10:51:43;;;;;;;51.83;48.13;;;3.40;99.90;;;;;;5014365;28;20457;-81
2021/01/08 10:54:15;;;;;;;52.13;48.33;;;3.40;99.90;;;;;;5014394;28;20943;-81
2021/01/08 10:56:47;;;;;;;49.20;44.93;;;3.40;99.90;;;;;;5014233;28;20453;-82
2021/01/08 10:59:13;;;;;;;60.20;56.17;;;3.40;99.90;;;;;;5014142;28;20480;-81
2021/01/08 11:01:40;;;;;;;60.60;56.00;;;3.70;99.90;;;;;;5013169;28;20453;-82
2021/01/08 11:06:56;;;;;;;47.00;43.20;;;3.80;99.90;;;;;;5004225;28;20485;-81
2021/01/08 11:09:22;;;;;;;44.87;40.57;;;3.70;99.90;;;;;;5014263;28;20481;-81
2021/01/08 11:11:50;;;;;;;47.30;42.47;;;3.60;99.90;;;;;;5014092;28;21055;-80
2021/01/08 11:14:16;;;;;;;45.97;41.43;;;3.70;99.90;;;;;;5014866;28;20461;-81
2021/01/08 11:16:43;;;;;;;49.07;44.10;;;3.60;99.90;;;;;;5012965;28;20940;-81
2021/01/08 11:19:09;;;;;;;48.77;44.30;;;3.70;99.90;;;;;;5013933;28;20508;-82
2021/01/08 11:21:36;;;;;;;49.30;44.90;;;3.60;99.90;;;;;;5013692;28;20449;-80
2021/01/08 11:24:02;;;;;;;48.80;44.47;;;3.70;99.90;;;;;;5013774;28;21019;-81
2021/01/08 11:26:32;;;;;;;45.20;41.17;;;3.60;99.90;;;;;;5013964;28;20804;-82
2021/01/08 11:29:00;;;;;;;44.07;40.00;;;3.60;99.90;;;;;;5013960;28;20479;-80
2021/01/08 11:31:33;;;;;;;46.13;42.03;;;3.60;99.90;;;;;;5012608;28;20477;-82
2021/01/08 11:34:03;;;;;;;47.10;42.40;;;3.60;99.90;;;;;;5013494;28;20973;-82
2021/01/08 11:36:29;;;;;;;48.63;44.30;;;3.70;99.90;;;;;;5012803;28;20505;-81
2021/01/08 11:38:56;;;;;;;45.53;41.50;;;3.60;99.90;;;;;;5013450;28;20457;-83
2021/01/08 11:41:26;;;;;;;39.43;36.50;;;3.60;99.90;;;;;;5013535;28;20465;-81
2021/01/08 11:43:55;;;;;;;44.23;40.47;;;3.70;99.90;;;;;;5013498;28;20496;-80
2021/01/08 11:46:23;;;;;;;44.97;40.87;;;3.80;99.90;;;;;;5012519;28;20481;-82
2021/01/08 11:48:54;;;;;;;38.67;34.93;;;4.00;99.90;;;;;;5013465;28;20639;-81
2021/01/08 11:51:22;;;;;;;36.17;32.60;;;4.00;99.90;;;;;;5013475;28;20591;-81
2021/01/08 11:53:49;;;;;;;39.80;35.77;;;4.20;99.90;;;;;;5013403;28;20493;-81
2021/01/08 11:56:26;;;;;;;37.37;34.00;;;4.20;99.90;;;;;;5013511;28;20453;-81
2021/01/08 11:58:56;;;;;;;36.00;32.40;;;4.30;99.90;;;;;;5013294;28;20547;-80
2021/01/08 12:01:30;;;;;;;38.77;31.50;;;4.30;99.90;;;;;;5011973;28;20979;-81
2021/01/08 12:03:58;;;;;;;33.10;26.80;;;4.20;99.90;;;;;;5013389;28;20519;-81
2021/01/08 12:06:32;;;;;;;44.73;33.03;;;4.10;99.90;;;;;;5013217;28;20477;-80
2021/01/08 12:09:13;;;;;;;33.10;27.13;;;4.10;99.90;;;;;;5013370;28;20603;-81
2021/01/08 12:11:40;;;;;;;34.53;27.33;;;4.00;99.90;;;;;;5013086;28;20464;-81
2021/01/08 12:14:06;;;;;;;35.37;31.60;;;3.90;99.90;;;;;;5013260;28;20799;-81
2021/01/08 12:16:34;;;;;;;37.13;33.33;;;3.80;99.90;;;;;;5012189;28;20797;-81
2021/01/08 12:19:01;;;;;;;42.93;38.77;;;3.80;99.90;;;;;;5012995;28;20539;-81
2021/01/08 12:21:30;;;;;;;43.30;39.33;;;3.70;99.90;;;;;;5013173;28;20529;-80
2021/01/08 12:23:57;;;;;;;48.03;40.40;;;3.80;99.90;;;;;;5012925;28;20489;-81
2021/01/08 12:26:24;;;;;;;46.37;41.87;;;3.70;99.90;;;;;;5013127;28;20457;-81
2021/01/08 12:28:50;;;;;;;46.70;42.53;;;3.60;99.90;;;;;;5013105;28;20603;-81
2021/01/08 12:31:23;;;;;;;48.47;44.30;;;3.70;99.90;;;;;;5011714;28;20457;-80
2021/01/08 12:33:51;;;;;;;43.83;39.53;;;3.70;99.90;;;;;;5012936;28;20488;-81
2021/01/08 12:36:18;;;;;;;46.53;41.53;;;3.60;99.90;;;;;;5012760;28;20890;-81
2021/01/08 12:38:44;;;;;;;45.87;41.53;;;3.80;99.90;;;;;;5012890;28;20543;-80
2021/01/08 12:41:11;;;;;;;46.20;41.67;;;3.70;99.90;;;;;;5012987;28;20484;-82
2021/01/08 12:43:46;;;;;;;45.27;41.37;;;3.80;99.90;;;;;;5012960;28;20536;-82
2021/01/08 12:46:14;;;;;;;43.10;39.70;;;3.90;99.90;;;;;;5011779;28;20460;-81
2021/01/08 12:48:41;;;;;;;33.80;30.80;;;3.90;99.90;;;;;;5015555;28;20457;-81
2021/01/08 12:51:11;;;;;;;28.73;20.97;;;3.90;99.90;;;;;;5016722;28;20825;-81
2021/01/08 12:53:37;;;;;;;29.13;23.60;;;3.80;99.90;;;;;;5016429;28;20468;-81
2021/01/08 12:56:04;;;;;;;28.00;23.17;;;3.70;99.90;;;;;;5016860;28;20453;-83
2021/01/08 12:58:33;;;;;;;34.20;25.43;;;3.60;99.90;;;;;;5016778;28;20859;-83
2021/01/08 13:00:59;;;;;;;28.27;25.17;;;3.50;99.90;;;;;;5015710;28;20868;-81